sensor_id;sensor_type;location;lat;lon;timestamp;P1;durP1;ratioP1;P2;durP2;ratioP2
15194;SDS011;7698;42.478;23.756;2023-12-20T00:00:16;11.93;;;10.70;;
15194;SDS011;7698;42.478;23.756;2023-12-20T00:02:43;14.27;;;12.63;;
15194;SDS011;7698;42.478;23.756;2023-12-20T00:05:13;17.33;;;14.55;;
15194;SDS011;7698;42.478;23.756;2023-12-20T00:07:40;15.32;;;13.68;;
15194;SDS011;7698;42.478;23.756;2023-12-20T00:10:06;14.27;;;12.50;;
15194;SDS011;7698;42.478;23.756;2023-12-20T00:12:33;11.85;;;10.63;;
15194;SDS011;7698;42.478;23.756;2023-12-20T00:15:00;15.57;;;13.98;;
15194;SDS011;7698;42.478;23.756;2023-12-20T00:17:26;18.80;;;15.53;;
15194;SDS011;7698;42.478;23.756;2023-12-20T00:19:53;17.45;;;14.98;;
15194;SDS011;7698;42.478;23.756;2023-12-20T00:22:21;18.95;;;16.60;;
15194;SDS011;7698;42.478;23.756;2023-12-20T00:24:47;13.27;;;11.80;;
15194;SDS011;7698;42.478;23.756;2023-12-20T00:27:14;14.50;;;12.82;;
15194;SDS011;7698;42.478;23.756;2023-12-20T00:29:40;12.35;;;11.05;;
15194;SDS011;7698;42.478;23.756;2023-12-20T00:32:08;12.00;;;9.68;;
15194;SDS011;7698;42.478;23.756;2023-12-20T00:34:34;11.38;;;9.23;;
15194;SDS011;7698;42.478;23.756;2023-12-20T00:37:01;10.10;;;8.52;;
15194;SDS011;7698;42.478;23.756;2023-12-20T00:39:29;8.50;;;7.60;;
15194;SDS011;7698;42.478;23.756;2023-12-20T00:41:55;6.72;;;5.95;;
15194;SDS011;7698;42.478;23.756;2023-12-20T00:44:22;7.15;;;5.32;;
15194;SDS011;7698;42.478;23.756;2023-12-20T00:46:48;8.30;;;7.20;;
15194;SDS011;7698;42.478;23.756;2023-12-20T00:49:15;7.75;;;7.00;;
15194;SDS011;7698;42.478;23.756;2023-12-20T00:51:41;7.47;;;6.68;;
15194;SDS011;7698;42.478;23.756;2023-12-20T00:54:08;10.50;;;9.40;;
15194;SDS011;7698;42.478;23.756;2023-12-20T00:56:36;10.18;;;9.27;;
15194;SDS011;7698;42.478;23.756;2023-12-20T00:59:02;8.55;;;7.70;;
15194;SDS011;7698;42.478;23.756;2023-12-20T01:01:29;11.75;;;10.52;;
15194;SDS011;7698;42.478;23.756;2023-12-20T01:03:55;10.85;;;9.75;;
15194;SDS011;7698;42.478;23.756;2023-12-20T01:06:22;25.02;;;22.48;;
15194;SDS011;7698;42.478;23.756;2023-12-20T01:08:48;30.83;;;27.83;;
15194;SDS011;7698;42.478;23.756;2023-12-20T01:11:15;25.25;;;22.73;;
15194;SDS011;7698;42.478;23.756;2023-12-20T01:13:43;32.42;;;29.20;;
15194;SDS011;7698;42.478;23.756;2023-12-20T01:16:10;30.58;;;27.67;;
15194;SDS011;7698;42.478;23.756;2023-12-20T01:18:36;29.20;;;26.40;;
15194;SDS011;7698;42.478;23.756;2023-12-20T01:21:04;22.42;;;20.33;;
15194;SDS011;7698;42.478;23.756;2023-12-20T01:23:30;20.73;;;17.67;;
15194;SDS011;7698;42.478;23.756;2023-12-20T01:25:57;22.45;;;20.15;;
15194;SDS011;7698;42.478;23.756;2023-12-20T01:28:24;20.23;;;17.17;;
15194;SDS011;7698;42.478;23.756;2023-12-20T01:30:52;20.50;;;18.33;;
15194;SDS011;7698;42.478;23.756;2023-12-20T01:33:19;20.30;;;18.20;;
15194;SDS011;7698;42.478;23.756;2023-12-20T01:35:45;18.10;;;15.10;;
15194;SDS011;7698;42.478;23.756;2023-12-20T01:38:12;19.35;;;17.27;;
15194;SDS011;7698;42.478;23.756;2023-12-20T01:40:37;17.25;;;15.48;;
15194;SDS011;7698;42.478;23.756;2023-12-20T01:43:06;15.82;;;14.23;;
15194;SDS011;7698;42.478;23.756;2023-12-20T01:45:33;15.18;;;13.40;;
15194;SDS011;7698;42.478;23.756;2023-12-20T01:48:00;13.02;;;11.77;;
15194;SDS011;7698;42.478;23.756;2023-12-20T01:50:28;12.80;;;11.50;;
15194;SDS011;7698;42.478;23.756;2023-12-20T01:52:54;18.55;;;16.00;;
15194;SDS011;7698;42.478;23.756;2023-12-20T01:55:22;27.77;;;24.98;;
15194;SDS011;7698;42.478;23.756;2023-12-20T01:57:49;29.67;;;26.67;;
15194;SDS011;7698;42.478;23.756;2023-12-20T02:00:16;29.13;;;25.88;;
15194;SDS011;7698;42.478;23.756;2023-12-20T02:02:46;27.77;;;23.85;;
15194;SDS011;7698;42.478;23.756;2023-12-20T02:05:14;35.87;;;29.80;;
15194;SDS011;7698;42.478;23.756;2023-12-20T02:07:41;37.13;;;27.80;;
15194;SDS011;7698;42.478;23.756;2023-12-20T02:10:07;28.75;;;24.23;;
15194;SDS011;7698;42.478;23.756;2023-12-20T02:12:34;26.27;;;22.20;;
15194;SDS011;7698;42.478;23.756;2023-12-20T02:15:00;23.02;;;20.77;;
15194;SDS011;7698;42.478;23.756;2023-12-20T02:17:27;23.37;;;20.97;;
15194;SDS011;7698;42.478;23.756;2023-12-20T02:19:54;20.38;;;18.30;;
15194;SDS011;7698;42.478;23.756;2023-12-20T02:22:22;15.52;;;14.07;;
15194;SDS011;7698;42.478;23.756;2023-12-20T02:24:48;16.93;;;14.73;;
15194;SDS011;7698;42.478;23.756;2023-12-20T02:27:15;16.87;;;15.07;;
15194;SDS011;7698;42.478;23.756;2023-12-20T02:29:41;16.73;;;14.93;;
15194;SDS011;7698;42.478;23.756;2023-12-20T02:32:08;15.73;;;14.25;;
15194;SDS011;7698;42.478;23.756;2023-12-20T02:34:34;18.17;;;16.05;;
15194;SDS011;7698;42.478;23.756;2023-12-20T02:37:01;24.37;;;21.90;;
15194;SDS011;7698;42.478;23.756;2023-12-20T02:39:29;22.50;;;20.20;;
15194;SDS011;7698;42.478;23.756;2023-12-20T02:41:56;25.77;;;22.97;;
15194;SDS011;7698;42.478;23.756;2023-12-20T02:44:22;25.75;;;22.92;;
15194;SDS011;7698;42.478;23.756;2023-12-20T02:46:49;23.58;;;21.08;;
15194;SDS011;7698;42.478;23.756;2023-12-20T02:49:15;23.83;;;21.33;;
15194;SDS011;7698;42.478;23.756;2023-12-20T02:51:42;18.80;;;17.02;;
15194;SDS011;7698;42.478;23.756;2023-12-20T02:54:08;16.23;;;14.53;;
15194;SDS011;7698;42.478;23.756;2023-12-20T02:56:36;15.32;;;13.85;;
15194;SDS011;7698;42.478;23.756;2023-12-20T02:59:03;14.93;;;13.43;;
15194;SDS011;7698;42.478;23.756;2023-12-20T03:01:30;15.67;;;14.07;;
15194;SDS011;7698;42.478;23.756;2023-12-20T03:03:57;19.70;;;17.65;;
15194;SDS011;7698;42.478;23.756;2023-12-20T03:06:23;25.53;;;21.87;;
15194;SDS011;7698;42.478;23.756;2023-12-20T03:08:50;27.88;;;23.00;;
15194;SDS011;7698;42.478;23.756;2023-12-20T03:11:17;26.35;;;23.55;;
15194;SDS011;7698;42.478;23.756;2023-12-20T03:13:45;22.50;;;20.05;;
15194;SDS011;7698;42.478;23.756;2023-12-20T03:16:12;26.20;;;22.48;;
15194;SDS011;7698;42.478;23.756;2023-12-20T03:18:38;19.52;;;17.48;;
15194;SDS011;7698;42.478;23.756;2023-12-20T03:21:05;20.92;;;18.73;;
15194;SDS011;7698;42.478;23.756;2023-12-20T03:23:31;19.05;;;17.05;;
15194;SDS011;7698;42.478;23.756;2023-12-20T03:25:58;18.47;;;16.67;;
15194;SDS011;7698;42.478;23.756;2023-12-20T03:28:25;17.25;;;15.45;;
15194;SDS011;7698;42.478;23.756;2023-12-20T03:30:53;16.33;;;14.63;;
15194;SDS011;7698;42.478;23.756;2023-12-20T03:33:20;17.60;;;15.85;;
15194;SDS011;7698;42.478;23.756;2023-12-20T03:35:46;17.30;;;15.52;;
15194;SDS011;7698;42.478;23.756;2023-12-20T03:38:13;15.73;;;14.03;;
15194;SDS011;7698;42.478;23.756;2023-12-20T03:40:39;16.67;;;14.85;;
15194;SDS011;7698;42.478;23.756;2023-12-20T03:43:06;12.13;;;10.98;;
15194;SDS011;7698;42.478;23.756;2023-12-20T03:45:33;11.27;;;9.55;;
15194;SDS011;7698;42.478;23.756;2023-12-20T03:48:00;14.82;;;13.18;;
15194;SDS011;7698;42.478;23.756;2023-12-20T03:50:27;21.27;;;18.15;;
15194;SDS011;7698;42.478;23.756;2023-12-20T03:52:53;26.77;;;22.30;;
15194;SDS011;7698;42.478;23.756;2023-12-20T03:55:20;24.77;;;20.55;;
15194;SDS011;7698;42.478;23.756;2023-12-20T03:57:46;22.73;;;19.58;;
15194;SDS011;7698;42.478;23.756;2023-12-20T04:00:13;17.98;;;16.02;;
15194;SDS011;7698;42.478;23.756;2023-12-20T04:02:40;25.27;;;22.60;;
15194;SDS011;7698;42.478;23.756;2023-12-20T04:05:09;42.50;;;36.83;;
15194;SDS011;7698;42.478;23.756;2023-12-20T04:07:36;49.33;;;40.93;;
15194;SDS011;7698;42.478;23.756;2023-12-20T04:10:02;56.33;;;45.25;;
15194;SDS011;7698;42.478;23.756;2023-12-20T04:12:29;61.13;;;51.53;;
15194;SDS011;7698;42.478;23.756;2023-12-20T04:14:56;70.83;;;56.80;;
15194;SDS011;7698;42.478;23.756;2023-12-20T04:17:22;72.80;;;58.57;;
15194;SDS011;7698;42.478;23.756;2023-12-20T04:19:49;69.83;;;56.20;;
15194;SDS011;7698;42.478;23.756;2023-12-20T04:22:17;56.03;;;47.60;;
15194;SDS011;7698;42.478;23.756;2023-12-20T04:24:43;50.50;;;43.43;;
15194;SDS011;7698;42.478;23.756;2023-12-20T04:27:10;45.60;;;39.07;;
15194;SDS011;7698;42.478;23.756;2023-12-20T04:29:37;35.65;;;29.08;;
15194;SDS011;7698;42.478;23.756;2023-12-20T04:32:04;30.10;;;26.52;;
15194;SDS011;7698;42.478;23.756;2023-12-20T04:34:30;29.20;;;23.50;;
15194;SDS011;7698;42.478;23.756;2023-12-20T04:36:57;23.90;;;19.30;;
15194;SDS011;7698;42.478;23.756;2023-12-20T04:39:25;19.27;;;15.77;;
15194;SDS011;7698;42.478;23.756;2023-12-20T04:41:51;18.47;;;14.80;;
15194;SDS011;7698;42.478;23.756;2023-12-20T04:44:18;14.90;;;13.37;;
15194;SDS011;7698;42.478;23.756;2023-12-20T04:46:44;27.88;;;21.45;;
15194;SDS011;7698;42.478;23.756;2023-12-20T04:49:11;37.37;;;28.17;;
15194;SDS011;7698;42.478;23.756;2023-12-20T04:51:37;40.97;;;32.60;;
15194;SDS011;7698;42.478;23.756;2023-12-20T04:54:04;41.50;;;34.88;;
15194;SDS011;7698;42.478;23.756;2023-12-20T04:56:32;36.95;;;28.95;;
15194;SDS011;7698;42.478;23.756;2023-12-20T04:58:58;43.60;;;35.87;;
15194;SDS011;7698;42.478;23.756;2023-12-20T05:01:25;39.45;;;34.50;;
15194;SDS011;7698;42.478;23.756;2023-12-20T05:03:51;33.47;;;28.77;;
15194;SDS011;7698;42.478;23.756;2023-12-20T05:06:18;31.53;;;26.63;;
15194;SDS011;7698;42.478;23.756;2023-12-20T05:08:44;33.27;;;27.17;;
15194;SDS011;7698;42.478;23.756;2023-12-20T05:11:11;28.17;;;25.00;;
15194;SDS011;7698;42.478;23.756;2023-12-20T05:13:40;25.87;;;23.00;;
15194;SDS011;7698;42.478;23.756;2023-12-20T05:16:07;30.98;;;25.30;;
15194;SDS011;7698;42.478;23.756;2023-12-20T05:18:34;28.90;;;23.93;;
15194;SDS011;7698;42.478;23.756;2023-12-20T05:21:00;26.08;;;21.90;;
15194;SDS011;7698;42.478;23.756;2023-12-20T05:23:27;29.07;;;24.13;;
15194;SDS011;7698;42.478;23.756;2023-12-20T05:25:54;23.90;;;20.25;;
15194;SDS011;7698;42.478;23.756;2023-12-20T05:28:20;22.07;;;18.07;;
15194;SDS011;7698;42.478;23.756;2023-12-20T05:30:48;22.88;;;16.60;;
15194;SDS011;7698;42.478;23.756;2023-12-20T05:33:15;24.03;;;17.93;;
15194;SDS011;7698;42.478;23.756;2023-12-20T05:35:42;24.47;;;20.00;;
15194;SDS011;7698;42.478;23.756;2023-12-20T05:38:09;27.53;;;24.63;;
15194;SDS011;7698;42.478;23.756;2023-12-20T05:40:35;31.90;;;28.70;;
15194;SDS011;7698;42.478;23.756;2023-12-20T05:43:02;37.85;;;33.97;;
15194;SDS011;7698;42.478;23.756;2023-12-20T05:45:29;39.53;;;35.70;;
15194;SDS011;7698;42.478;23.756;2023-12-20T05:47:57;34.10;;;30.52;;
15194;SDS011;7698;42.478;23.756;2023-12-20T05:50:23;29.73;;;26.83;;
15194;SDS011;7698;42.478;23.756;2023-12-20T05:52:51;32.80;;;29.20;;
15194;SDS011;7698;42.478;23.756;2023-12-20T05:55:17;33.58;;;27.33;;
15194;SDS011;7698;42.478;23.756;2023-12-20T05:57:44;39.03;;;33.35;;
15194;SDS011;7698;42.478;23.756;2023-12-20T06:00:10;38.28;;;33.40;;
15194;SDS011;7698;42.478;23.756;2023-12-20T06:02:37;41.63;;;34.70;;
15194;SDS011;7698;42.478;23.756;2023-12-20T06:05:05;40.80;;;33.30;;
15194;SDS011;7698;42.478;23.756;2023-12-20T06:07:32;49.97;;;39.37;;
15194;SDS011;7698;42.478;23.756;2023-12-20T06:09:59;46.22;;;37.10;;
15194;SDS011;7698;42.478;23.756;2023-12-20T06:12:25;39.92;;;32.75;;
15194;SDS011;7698;42.478;23.756;2023-12-20T06:14:53;42.60;;;32.43;;
15194;SDS011;7698;42.478;23.756;2023-12-20T06:17:20;32.85;;;27.55;;
15194;SDS011;7698;42.478;23.756;2023-12-20T06:19:47;26.50;;;20.60;;
15194;SDS011;7698;42.478;23.756;2023-12-20T06:22:15;25.42;;;18.33;;
15194;SDS011;7698;42.478;23.756;2023-12-20T06:24:41;35.42;;;29.23;;
15194;SDS011;7698;42.478;23.756;2023-12-20T06:27:08;38.33;;;34.33;;
15194;SDS011;7698;42.478;23.756;2023-12-20T06:29:33;37.55;;;32.05;;
15194;SDS011;7698;42.478;23.756;2023-12-20T06:32:00;30.63;;;27.17;;
15194;SDS011;7698;42.478;23.756;2023-12-20T06:34:27;34.50;;;30.95;;
15194;SDS011;7698;42.478;23.756;2023-12-20T06:36:53;36.05;;;32.10;;
15194;SDS011;7698;42.478;23.756;2023-12-20T06:39:21;38.63;;;34.20;;
15194;SDS011;7698;42.478;23.756;2023-12-20T06:41:48;38.10;;;33.42;;
15194;SDS011;7698;42.478;23.756;2023-12-20T06:44:14;36.15;;;32.45;;
15194;SDS011;7698;42.478;23.756;2023-12-20T06:46:41;37.35;;;33.38;;
15194;SDS011;7698;42.478;23.756;2023-12-20T06:49:07;40.60;;;36.30;;
15194;SDS011;7698;42.478;23.756;2023-12-20T06:51:34;45.35;;;40.50;;
15194;SDS011;7698;42.478;23.756;2023-12-20T06:54:00;53.55;;;47.85;;
15194;SDS011;7698;42.478;23.756;2023-12-20T06:56:29;47.30;;;42.63;;
15194;SDS011;7698;42.478;23.756;2023-12-20T06:58:55;35.83;;;32.22;;
15194;SDS011;7698;42.478;23.756;2023-12-20T07:01:22;39.28;;;35.40;;
15194;SDS011;7698;42.478;23.756;2023-12-20T07:03:48;37.80;;;34.10;;
15194;SDS011;7698;42.478;23.756;2023-12-20T07:06:15;45.28;;;40.83;;
15194;SDS011;7698;42.478;23.756;2023-12-20T07:08:42;42.40;;;38.35;;
15194;SDS011;7698;42.478;23.756;2023-12-20T07:11:09;35.45;;;32.15;;
15194;SDS011;7698;42.478;23.756;2023-12-20T07:13:37;45.15;;;40.78;;
15194;SDS011;7698;42.478;23.756;2023-12-20T07:16:03;82.03;;;73.25;;
15194;SDS011;7698;42.478;23.756;2023-12-20T07:18:30;55.90;;;50.65;;
15194;SDS011;7698;42.478;23.756;2023-12-20T07:20:56;59.40;;;53.47;;
15194;SDS011;7698;42.478;23.756;2023-12-20T07:23:23;67.78;;;60.80;;
15194;SDS011;7698;42.478;23.756;2023-12-20T07:25:50;59.72;;;53.60;;
15194;SDS011;7698;42.478;23.756;2023-12-20T07:28:17;63.75;;;57.28;;
15194;SDS011;7698;42.478;23.756;2023-12-20T07:30:45;58.88;;;53.08;;
15194;SDS011;7698;42.478;23.756;2023-12-20T07:33:12;50.83;;;46.03;;
15194;SDS011;7698;42.478;23.756;2023-12-20T07:35:38;53.28;;;48.00;;
15194;SDS011;7698;42.478;23.756;2023-12-20T07:38:05;58.30;;;52.00;;
15194;SDS011;7698;42.478;23.756;2023-12-20T07:40:32;64.22;;;57.53;;
15194;SDS011;7698;42.478;23.756;2023-12-20T07:42:58;59.30;;;53.00;;
15194;SDS011;7698;42.478;23.756;2023-12-20T07:45:25;65.80;;;59.22;;
15194;SDS011;7698;42.478;23.756;2023-12-20T07:47:53;70.53;;;63.10;;
15194;SDS011;7698;42.478;23.756;2023-12-20T07:50:19;75.57;;;67.53;;
15194;SDS011;7698;42.478;23.756;2023-12-20T07:52:46;70.78;;;63.47;;
15194;SDS011;7698;42.478;23.756;2023-12-20T07:55:13;74.80;;;66.60;;
15194;SDS011;7698;42.478;23.756;2023-12-20T07:57:39;76.55;;;68.45;;
15194;SDS011;7698;42.478;23.756;2023-12-20T08:00:07;66.40;;;59.15;;
15194;SDS011;7698;42.478;23.756;2023-12-20T08:02:33;70.78;;;61.63;;
15194;SDS011;7698;42.478;23.756;2023-12-20T08:05:01;71.28;;;61.28;;
15194;SDS011;7698;42.478;23.756;2023-12-20T08:07:28;71.53;;;59.58;;
15194;SDS011;7698;42.478;23.756;2023-12-20T08:09:54;62.05;;;55.40;;
15194;SDS011;7698;42.478;23.756;2023-12-20T08:12:22;52.00;;;46.75;;
15194;SDS011;7698;42.478;23.756;2023-12-20T08:14:48;43.80;;;39.20;;
15194;SDS011;7698;42.478;23.756;2023-12-20T08:17:15;38.15;;;34.10;;
15194;SDS011;7698;42.478;23.756;2023-12-20T08:19:44;38.10;;;34.03;;
15194;SDS011;7698;42.478;23.756;2023-12-20T08:22:12;45.17;;;40.30;;
15194;SDS011;7698;42.478;23.756;2023-12-20T08:24:38;52.85;;;47.33;;
15194;SDS011;7698;42.478;23.756;2023-12-20T08:27:05;51.63;;;46.33;;
15194;SDS011;7698;42.478;23.756;2023-12-20T08:29:31;54.63;;;49.08;;
15194;SDS011;7698;42.478;23.756;2023-12-20T08:31:58;56.20;;;50.55;;
15194;SDS011;7698;42.478;23.756;2023-12-20T08:34:25;62.20;;;56.03;;
15194;SDS011;7698;42.478;23.756;2023-12-20T08:36:52;65.55;;;58.83;;
15194;SDS011;7698;42.478;23.756;2023-12-20T08:39:20;60.20;;;54.17;;
15194;SDS011;7698;42.478;23.756;2023-12-20T08:41:46;63.45;;;56.83;;
15194;SDS011;7698;42.478;23.756;2023-12-20T08:44:13;61.95;;;55.53;;
15194;SDS011;7698;42.478;23.756;2023-12-20T08:46:39;53.45;;;47.90;;
15194;SDS011;7698;42.478;23.756;2023-12-20T08:49:06;69.70;;;62.50;;
15194;SDS011;7698;42.478;23.756;2023-12-20T08:51:34;67.15;;;59.78;;
15194;SDS011;7698;42.478;23.756;2023-12-20T08:54:00;68.10;;;60.88;;
15194;SDS011;7698;42.478;23.756;2023-12-20T08:56:28;69.72;;;62.25;;
15194;SDS011;7698;42.478;23.756;2023-12-20T08:58:55;72.00;;;64.28;;
15194;SDS011;7698;42.478;23.756;2023-12-20T09:01:21;64.18;;;57.20;;
15194;SDS011;7698;42.478;23.756;2023-12-20T09:03:48;44.90;;;38.75;;
15194;SDS011;7698;42.478;23.756;2023-12-20T09:06:14;63.03;;;52.83;;
15194;SDS011;7698;42.478;23.756;2023-12-20T09:08:41;61.25;;;54.60;;
15194;SDS011;7698;42.478;23.756;2023-12-20T09:11:08;45.78;;;40.92;;
15194;SDS011;7698;42.478;23.756;2023-12-20T09:13:36;71.10;;;63.65;;
15194;SDS011;7698;42.478;23.756;2023-12-20T09:16:03;68.32;;;60.95;;
15194;SDS011;7698;42.478;23.756;2023-12-20T09:18:29;72.05;;;63.38;;
15194;SDS011;7698;42.478;23.756;2023-12-20T09:20:56;77.00;;;68.85;;
15194;SDS011;7698;42.478;23.756;2023-12-20T09:23:22;74.22;;;66.55;;
15194;SDS011;7698;42.478;23.756;2023-12-20T09:25:49;74.50;;;66.53;;
15194;SDS011;7698;42.478;23.756;2023-12-20T09:28:15;81.38;;;72.45;;
15194;SDS011;7698;42.478;23.756;2023-12-20T09:30:43;88.50;;;75.40;;
15194;SDS011;7698;42.478;23.756;2023-12-20T09:33:11;83.57;;;74.68;;
15194;SDS011;7698;42.478;23.756;2023-12-20T09:35:37;70.85;;;61.80;;
15194;SDS011;7698;42.478;23.756;2023-12-20T09:38:04;57.17;;;50.88;;
15194;SDS011;7698;42.478;23.756;2023-12-20T09:40:31;47.38;;;39.38;;
15194;SDS011;7698;42.478;23.756;2023-12-20T09:43:00;38.33;;;33.88;;
15194;SDS011;7698;42.478;23.756;2023-12-20T09:45:28;41.58;;;37.17;;
15194;SDS011;7698;42.478;23.756;2023-12-20T09:47:57;38.38;;;34.38;;
15194;SDS011;7698;42.478;23.756;2023-12-20T09:50:24;37.10;;;33.30;;
15194;SDS011;7698;42.478;23.756;2023-12-20T09:52:52;34.67;;;31.38;;
15194;SDS011;7698;42.478;23.756;2023-12-20T09:55:19;49.10;;;43.88;;
15194;SDS011;7698;42.478;23.756;2023-12-20T09:57:46;57.17;;;51.50;;
15194;SDS011;7698;42.478;23.756;2023-12-20T10:00:13;53.35;;;48.03;;
15194;SDS011;7698;42.478;23.756;2023-12-20T10:02:41;55.97;;;50.35;;
15194;SDS011;7698;42.478;23.756;2023-12-20T10:05:14;53.53;;;48.22;;
15194;SDS011;7698;42.478;23.756;2023-12-20T10:10:49;61.95;;;55.72;;
15194;SDS011;7698;42.478;23.756;2023-12-20T10:13:16;62.15;;;55.90;;
15194;SDS011;7698;42.478;23.756;2023-12-20T10:15:43;51.88;;;46.83;;
15194;SDS011;7698;42.478;23.756;2023-12-20T10:18:09;63.00;;;56.60;;
15194;SDS011;7698;42.478;23.756;2023-12-20T10:20:41;58.53;;;52.67;;
15194;SDS011;7698;42.478;23.756;2023-12-20T10:23:07;54.95;;;49.05;;
15194;SDS011;7698;42.478;23.756;2023-12-20T10:25:34;43.60;;;39.30;;
15194;SDS011;7698;42.478;23.756;2023-12-20T10:28:10;42.40;;;38.15;;
15194;SDS011;7698;42.478;23.756;2023-12-20T10:30:37;41.15;;;36.97;;
15194;SDS011;7698;42.478;23.756;2023-12-20T10:33:05;38.13;;;34.03;;
15194;SDS011;7698;42.478;23.756;2023-12-20T10:35:31;32.50;;;29.23;;
15194;SDS011;7698;42.478;23.756;2023-12-20T10:38:00;30.42;;;27.35;;
15194;SDS011;7698;42.478;23.756;2023-12-20T10:40:29;31.02;;;28.00;;
15194;SDS011;7698;42.478;23.756;2023-12-20T10:42:55;29.20;;;26.42;;
15194;SDS011;7698;42.478;23.756;2023-12-20T10:45:22;26.58;;;23.83;;
15194;SDS011;7698;42.478;23.756;2023-12-20T10:47:49;30.05;;;26.88;;
15194;SDS011;7698;42.478;23.756;2023-12-20T10:50:16;31.27;;;28.20;;
15194;SDS011;7698;42.478;23.756;2023-12-20T10:52:44;42.90;;;38.55;;
15194;SDS011;7698;42.478;23.756;2023-12-20T10:55:13;45.80;;;41.47;;
15194;SDS011;7698;42.478;23.756;2023-12-20T10:57:39;44.20;;;39.92;;
15194;SDS011;7698;42.478;23.756;2023-12-20T11:00:07;37.17;;;33.38;;
15194;SDS011;7698;42.478;23.756;2023-12-20T11:02:37;45.60;;;40.88;;
15194;SDS011;7698;42.478;23.756;2023-12-20T11:05:06;47.30;;;42.72;;
15194;SDS011;7698;42.478;23.756;2023-12-20T11:07:36;43.28;;;39.03;;
15194;SDS011;7698;42.478;23.756;2023-12-20T11:10:09;42.00;;;38.00;;
15194;SDS011;7698;42.478;23.756;2023-12-20T11:12:39;36.60;;;33.00;;
15194;SDS011;7698;42.478;23.756;2023-12-20T11:15:08;28.60;;;25.85;;
15194;SDS011;7698;42.478;23.756;2023-12-20T11:17:34;22.10;;;19.90;;
15194;SDS011;7698;42.478;23.756;2023-12-20T11:20:08;28.08;;;25.35;;
15194;SDS011;7698;42.478;23.756;2023-12-20T11:22:37;28.02;;;25.23;;
15194;SDS011;7698;42.478;23.756;2023-12-20T11:25:07;26.30;;;23.73;;
15194;SDS011;7698;42.478;23.756;2023-12-20T11:27:34;25.92;;;23.38;;
15194;SDS011;7698;42.478;23.756;2023-12-20T11:30:03;14.45;;;12.95;;
15194;SDS011;7698;42.478;23.756;2023-12-20T11:32:33;10.77;;;9.77;;
15194;SDS011;7698;42.478;23.756;2023-12-20T11:35:01;8.20;;;7.40;;
15194;SDS011;7698;42.478;23.756;2023-12-20T11:37:28;12.02;;;10.75;;
15194;SDS011;7698;42.478;23.756;2023-12-20T11:39:55;11.95;;;10.80;;
15194;SDS011;7698;42.478;23.756;2023-12-20T11:42:22;11.50;;;10.40;;
15194;SDS011;7698;42.478;23.756;2023-12-20T11:44:48;11.35;;;10.27;;
15194;SDS011;7698;42.478;23.756;2023-12-20T11:47:17;8.70;;;7.88;;
15194;SDS011;7698;42.478;23.756;2023-12-20T11:49:46;9.10;;;8.20;;
15194;SDS011;7698;42.478;23.756;2023-12-20T11:52:13;8.00;;;7.20;;
15194;SDS011;7698;42.478;23.756;2023-12-20T11:54:40;10.18;;;9.18;;
15194;SDS011;7698;42.478;23.756;2023-12-20T11:57:06;6.88;;;6.25;;
15194;SDS011;7698;42.478;23.756;2023-12-20T11:59:33;7.20;;;6.50;;
15194;SDS011;7698;42.478;23.756;2023-12-20T12:01:59;11.48;;;10.38;;
15194;SDS011;7698;42.478;23.756;2023-12-20T12:04:27;11.05;;;9.98;;
15194;SDS011;7698;42.478;23.756;2023-12-20T12:06:54;10.40;;;9.40;;
15194;SDS011;7698;42.478;23.756;2023-12-20T12:09:21;13.23;;;11.93;;
15194;SDS011;7698;42.478;23.756;2023-12-20T12:11:48;17.15;;;15.50;;
15194;SDS011;7698;42.478;23.756;2023-12-20T12:14:14;20.15;;;18.35;;
15194;SDS011;7698;42.478;23.756;2023-12-20T12:16:41;29.10;;;26.30;;
15194;SDS011;7698;42.478;23.756;2023-12-20T12:19:10;28.92;;;25.23;;
15194;SDS011;7698;42.478;23.756;2023-12-20T12:21:47;29.83;;;26.80;;
15194;SDS011;7698;42.478;23.756;2023-12-20T12:24:13;33.15;;;29.83;;
15194;SDS011;7698;42.478;23.756;2023-12-20T12:26:40;32.97;;;29.48;;
15194;SDS011;7698;42.478;23.756;2023-12-20T12:29:07;36.08;;;31.60;;
15194;SDS011;7698;42.478;23.756;2023-12-20T12:31:34;32.13;;;28.75;;
15194;SDS011;7698;42.478;23.756;2023-12-20T12:34:01;30.77;;;26.10;;
15194;SDS011;7698;42.478;23.756;2023-12-20T12:36:28;29.67;;;26.48;;
15194;SDS011;7698;42.478;23.756;2023-12-20T12:38:57;29.35;;;26.45;;
15194;SDS011;7698;42.478;23.756;2023-12-20T12:41:24;20.42;;;18.15;;
15194;SDS011;7698;42.478;23.756;2023-12-20T12:43:50;19.02;;;16.15;;
15194;SDS011;7698;42.478;23.756;2023-12-20T12:46:17;16.38;;;14.57;;
15194;SDS011;7698;42.478;23.756;2023-12-20T12:48:43;16.65;;;14.95;;
15194;SDS011;7698;42.478;23.756;2023-12-20T12:51:10;20.88;;;18.70;;
15194;SDS011;7698;42.478;23.756;2023-12-20T12:53:38;24.15;;;21.70;;
15194;SDS011;7698;42.478;23.756;2023-12-20T12:56:07;23.52;;;21.13;;
15194;SDS011;7698;42.478;23.756;2023-12-20T12:58:33;23.25;;;20.85;;
15194;SDS011;7698;42.478;23.756;2023-12-20T13:01:00;25.25;;;21.45;;
15194;SDS011;7698;42.478;23.756;2023-12-20T13:03:28;20.33;;;18.13;;
15194;SDS011;7698;42.478;23.756;2023-12-20T13:05:55;22.08;;;19.10;;
15194;SDS011;7698;42.478;23.756;2023-12-20T13:08:22;20.02;;;16.70;;
15194;SDS011;7698;42.478;23.756;2023-12-20T13:10:48;22.00;;;18.10;;
15194;SDS011;7698;42.478;23.756;2023-12-20T13:13:16;19.88;;;17.40;;
15194;SDS011;7698;42.478;23.756;2023-12-20T13:15:42;22.52;;;20.13;;
15194;SDS011;7698;42.478;23.756;2023-12-20T13:18:15;30.63;;;24.35;;
15194;SDS011;7698;42.478;23.756;2023-12-20T13:20:42;33.28;;;26.73;;
15194;SDS011;7698;42.478;23.756;2023-12-20T13:23:08;27.67;;;22.92;;
15194;SDS011;7698;42.478;23.756;2023-12-20T13:25:35;31.02;;;25.05;;
15194;SDS011;7698;42.478;23.756;2023-12-20T13:28:01;31.65;;;27.95;;
15194;SDS011;7698;42.478;23.756;2023-12-20T13:30:30;36.22;;;31.13;;
15194;SDS011;7698;42.478;23.756;2023-12-20T13:32:57;24.42;;;21.90;;
15194;SDS011;7698;42.478;23.756;2023-12-20T13:35:23;21.63;;;19.15;;
15194;SDS011;7698;42.478;23.756;2023-12-20T13:37:50;21.40;;;19.15;;
15194;SDS011;7698;42.478;23.756;2023-12-20T13:40:17;20.23;;;18.13;;
15194;SDS011;7698;42.478;23.756;2023-12-20T13:42:43;18.83;;;16.90;;
15194;SDS011;7698;42.478;23.756;2023-12-20T13:45:10;20.25;;;17.95;;
15194;SDS011;7698;42.478;23.756;2023-12-20T13:47:38;25.27;;;19.95;;
15194;SDS011;7698;42.478;23.756;2023-12-20T13:50:05;23.23;;;20.70;;
15194;SDS011;7698;42.478;23.756;2023-12-20T13:52:32;21.77;;;18.98;;
15194;SDS011;7698;42.478;23.756;2023-12-20T13:54:58;25.02;;;22.42;;
15194;SDS011;7698;42.478;23.756;2023-12-20T13:57:25;25.05;;;21.73;;
15194;SDS011;7698;42.478;23.756;2023-12-20T13:59:52;26.40;;;23.10;;
15194;SDS011;7698;42.478;23.756;2023-12-20T14:02:18;24.33;;;21.58;;
15194;SDS011;7698;42.478;23.756;2023-12-20T14:04:46;21.67;;;18.17;;
15194;SDS011;7698;42.478;23.756;2023-12-20T14:07:12;24.92;;;20.63;;
15194;SDS011;7698;42.478;23.756;2023-12-20T14:09:39;22.83;;;20.25;;
15194;SDS011;7698;42.478;23.756;2023-12-20T14:12:10;24.60;;;21.33;;
15194;SDS011;7698;42.478;23.756;2023-12-20T14:14:36;25.80;;;22.35;;
15194;SDS011;7698;42.478;23.756;2023-12-20T14:17:03;28.42;;;23.13;;
15194;SDS011;7698;42.478;23.756;2023-12-20T14:19:31;24.02;;;20.58;;
15194;SDS011;7698;42.478;23.756;2023-12-20T14:21:59;32.33;;;26.95;;
15194;SDS011;7698;42.478;23.756;2023-12-20T14:24:27;28.65;;;23.02;;